Etusivu
METAR-TAF:

METAR-TAF

Lentoasemat :

Biskra, Algeria

Leveyspiiri: 34-48N, Pituuspiiri: 005-44E, korkeus merenpinnasta: 87 m

Tämänhetkinen sää

Tämä raportti tehtiin 54 minuuttia sitten, kello 05.00 UTC
Tuuli 12 kn lännestä/luoteesta, vaihdellen lännen ja pohjoisen/luoteen välillä
Lämpötila 34°C
Kosteus 23%
Ilmanpaine 1009 hPa
Näkyvyys 10 km tai enemmän
ei pilviä alle 1500 m:ssä eikä cumulonimbus-pilviä

METAR: DAUB 220500Z 30012KT 260V340 CAVOK 34/10 Q1009

Aika: 06:54 (05:54 UTC)

Sääennuste

Tämä raportti tehtiin 54 minuuttia sitten, kello 05.00 UTC
Ennuste voimassa 22. päivästä klo 06 UTC - 23. päivään klo 06 UTC
Tuuli 14 kn pohjoisesta/koillisesta
Näkyvyys 10 km tai enemmän
ei pilviä alle 1500 m:ssä eikä cumulonimbus-pilviä
Ajoittain
22. päivästä klo 06 UTC - 22. päivään klo 12 UTC
Tuuli 15 kn pohjoisesta/koillisesta puuskistuen 25 kn:hen

TAF: DAUB 220500Z 2206/2306 02014KT CAVOK TEMPO 2206/2212 02015G25KT

Säähavainnot ja -ennusteet yli 4000 lentoasemalta (METAR- ja TAF-raportit).

Käytössä olevat sääasemat on merkitty karttaan keltaisilla ja punaisilla pisteillä.

Aseta hiiri pisteen päälle nähdäksesi sääaseman nimen.

Klikkaa sitten nähdäksesi säähavainnot ja -ennusteet.

Kartan vaihtaminen: klikkaa mustalla rastilla varustettuja vihreitä pisteitä, niin voit zoomata sisään; viivalla varustettua vihreää pistettä, niin voit zoomata ulos tai vihreitä nuolia, niin pääset viereisille kartoille.


METAR-TAF: